sensor_id;sensor_type;location;lat;lon;timestamp;pressure;altitude;pressure_sealevel;temperature;humidity
77366;BME280;66430;50.182;11.704;2023-07-09T00:00:48;95149.92;;;23.77;24.37
77366;BME280;66430;50.182;11.704;2023-07-09T00:03:13;95151.08;;;23.99;24.27
77366;BME280;66430;50.182;11.704;2023-07-09T00:05:38;95152.13;;;23.96;24.31
77366;BME280;66430;50.182;11.704;2023-07-09T00:08:04;95153.34;;;23.92;24.17
77366;BME280;66430;50.182;11.704;2023-07-09T00:10:28;95157.48;;;23.88;24.09
77366;BME280;66430;50.182;11.704;2023-07-09T00:12:54;95159.63;;;23.85;24.05
77366;BME280;66430;50.182;11.704;2023-07-09T00:15:19;95161.26;;;23.66;24.75
77366;BME280;66430;50.182;11.704;2023-07-09T00:17:45;95161.50;;;23.81;24.85
77366;BME280;66430;50.182;11.704;2023-07-09T00:20:14;95163.61;;;23.81;24.56
77366;BME280;66430;50.182;11.704;2023-07-09T00:22:35;95164.98;;;23.51;24.72
77366;BME280;66430;50.182;11.704;2023-07-09T00:25:00;95166.77;;;23.47;24.86
77366;BME280;66430;50.182;11.704;2023-07-09T00:27:28;95165.16;;;23.66;25.01
77366;BME280;66430;50.182;11.704;2023-07-09T00:29:50;95162.54;;;23.38;24.73
77366;BME280;66430;50.182;11.704;2023-07-09T00:32:17;95162.35;;;23.82;24.64
77366;BME280;66430;50.182;11.704;2023-07-09T00:34:41;95164.13;;;23.34;24.35
77366;BME280;66430;50.182;11.704;2023-07-09T00:37:10;95164.38;;;23.31;24.23
77366;BME280;66430;50.182;11.704;2023-07-09T00:39:32;95163.04;;;23.29;24.14
77366;BME280;66430;50.182;11.704;2023-07-09T00:41:57;95166.73;;;23.41;24.52
77366;BME280;66430;50.182;11.704;2023-07-09T00:44:28;95167.45;;;23.16;24.48
77366;BME280;66430;50.182;11.704;2023-07-09T00:49:15;95163.59;;;23.06;24.57
77366;BME280;66430;50.182;11.704;2023-07-09T00:51:41;95164.63;;;23.31;24.38
77366;BME280;66430;50.182;11.704;2023-07-09T00:54:11;95163.88;;;23.27;24.62
77366;BME280;66430;50.182;11.704;2023-07-09T00:56:33;95162.07;;;23.46;24.85
77366;BME280;66430;50.182;11.704;2023-07-09T00:58:56;95159.19;;;22.88;24.56
77366;BME280;66430;50.182;11.704;2023-07-09T01:01:21;95159.28;;;23.15;24.42
77366;BME280;66430;50.182;11.704;2023-07-09T01:03:48;95160.31;;;23.31;24.43
77366;BME280;66430;50.182;11.704;2023-07-09T01:06:11;95162.87;;;22.98;23.75
77366;BME280;66430;50.182;11.704;2023-07-09T01:08:38;95157.44;;;23.28;23.41
77366;BME280;66430;50.182;11.704;2023-07-09T01:11:02;95160.32;;;22.89;23.99
77366;BME280;66430;50.182;11.704;2023-07-09T01:13:28;95161.41;;;23.13;23.58
77366;BME280;66430;50.182;11.704;2023-07-09T01:15:53;95162.67;;;23.18;23.17
77366;BME280;66430;50.182;11.704;2023-07-09T01:18:18;95162.72;;;22.70;23.32
77366;BME280;66430;50.182;11.704;2023-07-09T01:20:43;95161.21;;;23.11;23.37
77366;BME280;66430;50.182;11.704;2023-07-09T01:23:09;95161.00;;;22.86;23.28
77366;BME280;66430;50.182;11.704;2023-07-09T01:25:43;95162.17;;;23.03;23.37
77366;BME280;66430;50.182;11.704;2023-07-09T01:28:00;95160.09;;;22.96;23.59
77366;BME280;66430;50.182;11.704;2023-07-09T01:30:30;95160.64;;;22.94;23.67
77366;BME280;66430;50.182;11.704;2023-07-09T01:32:51;95160.36;;;22.87;23.89
77366;BME280;66430;50.182;11.704;2023-07-09T01:35:18;95160.17;;;22.84;23.81
77366;BME280;66430;50.182;11.704;2023-07-09T01:37:42;95157.28;;;22.74;24.20
77366;BME280;66430;50.182;11.704;2023-07-09T01:40:09;95156.29;;;22.63;24.27
77366;BME280;66430;50.182;11.704;2023-07-09T01:42:32;95152.80;;;22.56;24.60
77366;BME280;66430;50.182;11.704;2023-07-09T01:44:57;95153.97;;;22.72;25.16
77366;BME280;66430;50.182;11.704;2023-07-09T01:47:23;95150.96;;;22.72;24.48
77366;BME280;66430;50.182;11.704;2023-07-09T01:49:48;95153.64;;;22.67;24.39
77366;BME280;66430;50.182;11.704;2023-07-09T01:52:15;95156.85;;;22.46;24.31
77366;BME280;66430;50.182;11.704;2023-07-09T01:54:39;95158.21;;;22.47;24.08
77366;BME280;66430;50.182;11.704;2023-07-09T01:57:15;95157.34;;;22.46;24.39
77366;BME280;66430;50.182;11.704;2023-07-09T01:59:30;95161.33;;;22.96;23.77
77366;BME280;66430;50.182;11.704;2023-07-09T02:01:55;95158.46;;;22.53;23.29
77366;BME280;66430;50.182;11.704;2023-07-09T02:04:20;95155.70;;;22.51;23.13
77366;BME280;66430;50.182;11.704;2023-07-09T02:06:45;95155.48;;;22.48;23.28
77366;BME280;66430;50.182;11.704;2023-07-09T02:09:11;95153.98;;;22.42;23.56
77366;BME280;66430;50.182;11.704;2023-07-09T02:11:36;95153.40;;;22.37;23.85
77366;BME280;66430;50.182;11.704;2023-07-09T02:14:01;95152.79;;;22.52;24.03
77366;BME280;66430;50.182;11.704;2023-07-09T02:16:27;95152.99;;;22.50;24.27
77366;BME280;66430;50.182;11.704;2023-07-09T02:18:52;95151.94;;;22.27;24.11
77366;BME280;66430;50.182;11.704;2023-07-09T02:21:18;95151.16;;;22.27;24.08
77366;BME280;66430;50.182;11.704;2023-07-09T02:23:43;95152.99;;;22.74;24.12
77366;BME280;66430;50.182;11.704;2023-07-09T02:26:08;95153.82;;;22.26;24.10
77366;BME280;66430;50.182;11.704;2023-07-09T02:28:33;95153.20;;;22.50;24.21
77366;BME280;66430;50.182;11.704;2023-07-09T02:30:58;95155.98;;;22.45;24.64
77366;BME280;66430;50.182;11.704;2023-07-09T02:33:24;95156.58;;;22.44;24.74
77366;BME280;66430;50.182;11.704;2023-07-09T02:35:49;95160.45;;;22.14;24.76
77366;BME280;66430;50.182;11.704;2023-07-09T02:38:15;95159.91;;;22.14;24.42
77366;BME280;66430;50.182;11.704;2023-07-09T02:40:41;95163.55;;;22.59;24.27
77366;BME280;66430;50.182;11.704;2023-07-09T02:43:06;95162.81;;;22.39;23.97
77366;BME280;66430;50.182;11.704;2023-07-09T02:45:31;95161.23;;;22.17;23.81
77366;BME280;66430;50.182;11.704;2023-07-09T02:47:57;95160.96;;;22.44;23.77
77366;BME280;66430;50.182;11.704;2023-07-09T02:50:24;95163.05;;;22.14;24.14
77366;BME280;66430;50.182;11.704;2023-07-09T02:52:47;95165.17;;;22.41;24.52
77366;BME280;66430;50.182;11.704;2023-07-09T02:55:12;95164.62;;;22.29;24.41
77366;BME280;66430;50.182;11.704;2023-07-09T02:57:38;95164.06;;;22.33;24.61
77366;BME280;66430;50.182;11.704;2023-07-09T03:00:03;95162.26;;;22.36;24.72
77366;BME280;66430;50.182;11.704;2023-07-09T03:02:28;95164.42;;;22.36;24.41
77366;BME280;66430;50.182;11.704;2023-07-09T03:04:54;95167.98;;;22.38;24.50
77366;BME280;66430;50.182;11.704;2023-07-09T03:07:19;95173.76;;;22.29;24.58
77366;BME280;66430;50.182;11.704;2023-07-09T03:09:44;95176.54;;;22.12;24.49
77366;BME280;66430;50.182;11.704;2023-07-09T03:12:10;95174.18;;;22.35;24.52
77366;BME280;66430;50.182;11.704;2023-07-09T03:14:35;95177.23;;;22.30;24.82
77366;BME280;66430;50.182;11.704;2023-07-09T03:17:00;95179.36;;;22.31;24.56
77366;BME280;66430;50.182;11.704;2023-07-09T03:19:26;95180.80;;;22.31;24.57
77366;BME280;66430;50.182;11.704;2023-07-09T03:21:51;95183.13;;;22.16;24.15
77366;BME280;66430;50.182;11.704;2023-07-09T03:24:16;95185.35;;;22.65;24.23
77366;BME280;66430;50.182;11.704;2023-07-09T03:26:42;95185.53;;;22.42;24.50
77366;BME280;66430;50.182;11.704;2023-07-09T03:29:07;95187.53;;;22.21;24.58
77366;BME280;66430;50.182;11.704;2023-07-09T03:31:33;95186.54;;;22.25;24.54
77366;BME280;66430;50.182;11.704;2023-07-09T03:33:58;95184.56;;;22.78;24.89
77366;BME280;66430;50.182;11.704;2023-07-09T03:36:24;95186.73;;;22.36;25.01
77366;BME280;66430;50.182;11.704;2023-07-09T03:38:49;95186.82;;;22.41;24.84
77366;BME280;66430;50.182;11.704;2023-07-09T03:41:14;95186.29;;;22.67;25.35
77366;BME280;66430;50.182;11.704;2023-07-09T03:43:39;95188.67;;;22.84;25.82
77366;BME280;66430;50.182;11.704;2023-07-09T03:46:05;95188.29;;;22.68;26.19
77366;BME280;66430;50.182;11.704;2023-07-09T03:48:30;95191.83;;;22.87;26.35
77366;BME280;66430;50.182;11.704;2023-07-09T03:50:55;95192.40;;;23.28;26.37
77366;BME280;66430;50.182;11.704;2023-07-09T03:53:21;95193.91;;;23.22;26.35
77366;BME280;66430;50.182;11.704;2023-07-09T03:55:50;95193.60;;;23.11;26.50
77366;BME280;66430;50.182;11.704;2023-07-09T03:58:11;95190.79;;;23.31;25.85
77366;BME280;66430;50.182;11.704;2023-07-09T04:00:37;95187.82;;;23.70;25.44
77366;BME280;66430;50.182;11.704;2023-07-09T04:03:02;95187.32;;;23.58;26.52
77366;BME280;66430;50.182;11.704;2023-07-09T04:05:28;95189.33;;;23.53;26.20
77366;BME280;66430;50.182;11.704;2023-07-09T04:07:53;95191.32;;;23.72;26.10
77366;BME280;66430;50.182;11.704;2023-07-09T04:10:18;95192.26;;;23.83;26.59
77366;BME280;66430;50.182;11.704;2023-07-09T04:12:43;95193.32;;;23.99;27.06
77366;BME280;66430;50.182;11.704;2023-07-09T04:15:09;95194.00;;;24.24;28.39
77366;BME280;66430;50.182;11.704;2023-07-09T04:17:34;95194.63;;;24.36;28.56
77366;BME280;66430;50.182;11.704;2023-07-09T04:19:59;95196.86;;;24.33;28.74
77366;BME280;66430;50.182;11.704;2023-07-09T04:22:24;95197.34;;;24.76;28.79
77366;BME280;66430;50.182;11.704;2023-07-09T04:24:50;95196.38;;;24.63;29.02
77366;BME280;66430;50.182;11.704;2023-07-09T04:27:15;95198.31;;;24.73;29.83
77366;BME280;66430;50.182;11.704;2023-07-09T04:29:41;95200.01;;;24.94;29.34
77366;BME280;66430;50.182;11.704;2023-07-09T04:32:07;95201.31;;;25.11;29.10
77366;BME280;66430;50.182;11.704;2023-07-09T04:34:31;95203.91;;;25.05;29.34
77366;BME280;66430;50.182;11.704;2023-07-09T04:36:57;95205.03;;;25.03;28.90
77366;BME280;66430;50.182;11.704;2023-07-09T04:39:22;95204.92;;;25.17;28.86
77366;BME280;66430;50.182;11.704;2023-07-09T04:41:48;95206.77;;;25.47;29.53
77366;BME280;66430;50.182;11.704;2023-07-09T04:44:18;95207.82;;;25.42;30.05
77366;BME280;66430;50.182;11.704;2023-07-09T04:46:38;95206.45;;;25.77;29.87
77366;BME280;66430;50.182;11.704;2023-07-09T04:49:03;95208.25;;;25.95;29.88
77366;BME280;66430;50.182;11.704;2023-07-09T04:51:28;95208.74;;;25.78;28.99
77366;BME280;66430;50.182;11.704;2023-07-09T04:53:56;95211.41;;;25.89;29.45
77366;BME280;66430;50.182;11.704;2023-07-09T04:56:20;95213.61;;;26.04;29.39
77366;BME280;66430;50.182;11.704;2023-07-09T04:58:45;95216.54;;;26.28;29.69
77366;BME280;66430;50.182;11.704;2023-07-09T05:01:11;95215.66;;;26.82;29.05
77366;BME280;66430;50.182;11.704;2023-07-09T05:03:35;95212.94;;;26.62;28.80
77366;BME280;66430;50.182;11.704;2023-07-09T05:06:01;95213.33;;;26.68;28.55
77366;BME280;66430;50.182;11.704;2023-07-09T05:08:26;95210.62;;;26.86;28.64
77366;BME280;66430;50.182;11.704;2023-07-09T05:10:52;95211.11;;;26.78;28.82
77366;BME280;66430;50.182;11.704;2023-07-09T05:13:16;95216.43;;;27.16;28.94
77366;BME280;66430;50.182;11.704;2023-07-09T05:15:44;95217.18;;;27.14;28.82
77366;BME280;66430;50.182;11.704;2023-07-09T05:18:07;95216.88;;;27.19;29.78
77366;BME280;66430;50.182;11.704;2023-07-09T05:20:31;95219.61;;;27.05;28.95
77366;BME280;66430;50.182;11.704;2023-07-09T05:22:57;95219.60;;;27.35;28.52
77366;BME280;66430;50.182;11.704;2023-07-09T05:25:23;95219.92;;;27.39;28.66
77366;BME280;66430;50.182;11.704;2023-07-09T05:27:50;95220.27;;;27.35;28.39
77366;BME280;66430;50.182;11.704;2023-07-09T05:30:13;95219.45;;;27.49;27.57
77366;BME280;66430;50.182;11.704;2023-07-09T05:32:38;95220.75;;;27.41;26.67
77366;BME280;66430;50.182;11.704;2023-07-09T05:35:04;95220.06;;;27.79;26.68
77366;BME280;66430;50.182;11.704;2023-07-09T05:37:29;95220.69;;;27.89;26.63
77366;BME280;66430;50.182;11.704;2023-07-09T05:39:54;95221.92;;;27.65;27.33
77366;BME280;66430;50.182;11.704;2023-07-09T05:42:20;95222.27;;;27.41;25.84
77366;BME280;66430;50.182;11.704;2023-07-09T05:44:45;95223.85;;;28.23;26.41
77366;BME280;66430;50.182;11.704;2023-07-09T05:47:11;95224.20;;;28.06;26.45
77366;BME280;66430;50.182;11.704;2023-07-09T05:49:37;95225.56;;;28.01;25.80
77366;BME280;66430;50.182;11.704;2023-07-09T05:52:01;95225.71;;;27.72;25.15
77366;BME280;66430;50.182;11.704;2023-07-09T05:54:27;95228.84;;;28.03;25.04
77366;BME280;66430;50.182;11.704;2023-07-09T05:56:53;95230.30;;;28.60;24.73
77366;BME280;66430;50.182;11.704;2023-07-09T05:59:18;95229.37;;;28.74;24.33
77366;BME280;66430;50.182;11.704;2023-07-09T06:01:44;95225.97;;;28.62;24.40
77366;BME280;66430;50.182;11.704;2023-07-09T06:04:10;95229.07;;;28.44;23.96
77366;BME280;66430;50.182;11.704;2023-07-09T06:06:35;95226.97;;;28.70;24.50
77366;BME280;66430;50.182;11.704;2023-07-09T06:09:00;95227.25;;;28.95;23.86
77366;BME280;66430;50.182;11.704;2023-07-09T06:11:26;95226.93;;;28.94;23.75
77366;BME280;66430;50.182;11.704;2023-07-09T06:13:51;95229.89;;;29.04;24.01
77366;BME280;66430;50.182;11.704;2023-07-09T06:16:17;95231.32;;;28.91;23.95
77366;BME280;66430;50.182;11.704;2023-07-09T06:18:42;95233.28;;;29.19;23.36
77366;BME280;66430;50.182;11.704;2023-07-09T06:21:07;95234.10;;;28.99;23.33
77366;BME280;66430;50.182;11.704;2023-07-09T06:23:33;95233.69;;;29.24;23.43
77366;BME280;66430;50.182;11.704;2023-07-09T06:25:58;95232.52;;;29.09;24.07
77366;BME280;66430;50.182;11.704;2023-07-09T06:28:26;95232.44;;;29.13;24.04
77366;BME280;66430;50.182;11.704;2023-07-09T06:30:49;95232.53;;;29.60;23.67
77366;BME280;66430;50.182;11.704;2023-07-09T06:33:16;95233.35;;;29.20;23.37
77366;BME280;66430;50.182;11.704;2023-07-09T06:35:46;95237.31;;;29.49;23.38
77366;BME280;66430;50.182;11.704;2023-07-09T06:38:05;95236.83;;;29.34;23.72
77366;BME280;66430;50.182;11.704;2023-07-09T06:40:30;95238.35;;;29.55;23.59
77366;BME280;66430;50.182;11.704;2023-07-09T06:42:56;95241.32;;;29.87;22.96
77366;BME280;66430;50.182;11.704;2023-07-09T06:45:21;95240.94;;;30.35;23.57
77366;BME280;66430;50.182;11.704;2023-07-09T06:47:47;95241.92;;;29.96;23.93
77366;BME280;66430;50.182;11.704;2023-07-09T06:50:12;95240.84;;;30.16;23.13
77366;BME280;66430;50.182;11.704;2023-07-09T06:52:37;95241.62;;;30.36;23.39
77366;BME280;66430;50.182;11.704;2023-07-09T06:55:03;95240.51;;;30.43;23.38
77366;BME280;66430;50.182;11.704;2023-07-09T06:57:28;95239.63;;;30.48;23.23
77366;BME280;66430;50.182;11.704;2023-07-09T06:59:53;95240.15;;;30.45;23.25
77366;BME280;66430;50.182;11.704;2023-07-09T07:02:19;95242.30;;;30.54;24.34
77366;BME280;66430;50.182;11.704;2023-07-09T07:04:44;95241.61;;;30.39;23.40
77366;BME280;66430;50.182;11.704;2023-07-09T07:07:09;95241.30;;;30.74;23.57
77366;BME280;66430;50.182;11.704;2023-07-09T07:09:35;95243.00;;;30.90;23.63
77366;BME280;66430;50.182;11.704;2023-07-09T07:12:00;95243.06;;;30.33;23.44
77366;BME280;66430;50.182;11.704;2023-07-09T07:14:25;95243.17;;;30.65;23.63
77366;BME280;66430;50.182;11.704;2023-07-09T07:16:51;95244.05;;;30.63;23.82
77366;BME280;66430;50.182;11.704;2023-07-09T07:19:16;95245.52;;;30.73;23.88
77366;BME280;66430;50.182;11.704;2023-07-09T07:21:43;95242.17;;;30.94;23.61
77366;BME280;66430;50.182;11.704;2023-07-09T07:24:08;95243.96;;;31.24;23.32
77366;BME280;66430;50.182;11.704;2023-07-09T07:26:33;95241.40;;;31.40;23.57
77366;BME280;66430;50.182;11.704;2023-07-09T07:28:58;95242.59;;;31.03;22.35
77366;BME280;66430;50.182;11.704;2023-07-09T07:31:23;95241.37;;;31.24;22.90
77366;BME280;66430;50.182;11.704;2023-07-09T07:33:48;95241.71;;;31.32;21.38
77366;BME280;66430;50.182;11.704;2023-07-09T07:36:14;95239.92;;;31.12;21.21
77366;BME280;66430;50.182;11.704;2023-07-09T07:38:39;95240.56;;;31.39;20.82
77366;BME280;66430;50.182;11.704;2023-07-09T07:41:05;95239.30;;;31.12;20.80
77366;BME280;66430;50.182;11.704;2023-07-09T07:43:32;95239.63;;;31.13;21.78
77366;BME280;66430;50.182;11.704;2023-07-09T07:45:56;95239.68;;;31.32;21.25
77366;BME280;66430;50.182;11.704;2023-07-09T07:48:21;95239.10;;;31.41;20.61
77366;BME280;66430;50.182;11.704;2023-07-09T07:50:47;95238.32;;;31.27;20.45
77366;BME280;66430;50.182;11.704;2023-07-09T07:53:12;95245.60;;;31.27;21.50
77366;BME280;66430;50.182;11.704;2023-07-09T07:55:37;95239.04;;;31.51;21.00
77366;BME280;66430;50.182;11.704;2023-07-09T07:58:03;95243.86;;;31.07;21.76
77366;BME280;66430;50.182;11.704;2023-07-09T08:00:28;95241.59;;;31.64;21.44
77366;BME280;66430;50.182;11.704;2023-07-09T08:02:53;95244.37;;;31.28;22.02
77366;BME280;66430;50.182;11.704;2023-07-09T08:05:19;95245.11;;;31.08;21.86
77366;BME280;66430;50.182;11.704;2023-07-09T08:07:44;95241.20;;;31.42;21.55
77366;BME280;66430;50.182;11.704;2023-07-09T08:10:09;95238.32;;;31.82;21.88
77366;BME280;66430;50.182;11.704;2023-07-09T08:12:34;95236.55;;;31.78;21.71
77366;BME280;66430;50.182;11.704;2023-07-09T08:15:00;95231.90;;;32.08;21.15
77366;BME280;66430;50.182;11.704;2023-07-09T08:17:25;95233.00;;;32.13;20.55
77366;BME280;66430;50.182;11.704;2023-07-09T08:19:52;95230.12;;;31.80;21.35
77366;BME280;66430;50.182;11.704;2023-07-09T08:22:17;95233.30;;;32.40;21.05
77366;BME280;66430;50.182;11.704;2023-07-09T08:24:41;95232.07;;;32.22;20.03
77366;BME280;66430;50.182;11.704;2023-07-09T08:27:07;95233.15;;;32.75;21.08
77366;BME280;66430;50.182;11.704;2023-07-09T08:29:32;95234.94;;;32.69;20.13
77366;BME280;66430;50.182;11.704;2023-07-09T08:31:59;95235.31;;;32.84;20.02
77366;BME280;66430;50.182;11.704;2023-07-09T08:34:23;95234.61;;;32.16;20.39
77366;BME280;66430;50.182;11.704;2023-07-09T08:36:48;95236.66;;;32.35;19.50
77366;BME280;66430;50.182;11.704;2023-07-09T08:39:13;95233.14;;;31.97;20.14
77366;BME280;66430;50.182;11.704;2023-07-09T08:41:44;95236.59;;;32.28;20.26
77366;BME280;66430;50.182;11.704;2023-07-09T08:44:14;95236.67;;;32.70;19.68
77366;BME280;66430;50.182;11.704;2023-07-09T08:46:37;95236.02;;;32.35;18.10
77366;BME280;66430;50.182;11.704;2023-07-09T08:48:55;95234.81;;;32.43;17.80
77366;BME280;66430;50.182;11.704;2023-07-09T08:51:24;95240.96;;;32.66;19.50
77366;BME280;66430;50.182;11.704;2023-07-09T08:53:49;95239.61;;;32.29;19.89
77366;BME280;66430;50.182;11.704;2023-07-09T08:56:10;95237.54;;;32.43;18.64
77366;BME280;66430;50.182;11.704;2023-07-09T08:58:36;95236.78;;;32.47;18.10
77366;BME280;66430;50.182;11.704;2023-07-09T09:01:03;95239.60;;;32.93;18.69
77366;BME280;66430;50.182;11.704;2023-07-09T09:03:31;95243.69;;;32.83;19.76
77366;BME280;66430;50.182;11.704;2023-07-09T09:05:51;95247.41;;;32.86;18.64
77366;BME280;66430;50.182;11.704;2023-07-09T09:08:27;95248.66;;;32.96;18.85
77366;BME280;66430;50.182;11.704;2023-07-09T09:10:46;95248.44;;;33.03;19.56
77366;BME280;66430;50.182;11.704;2023-07-09T09:13:11;95252.38;;;33.22;19.10
77366;BME280;66430;50.182;11.704;2023-07-09T09:15:33;95250.84;;;33.45;19.58
77366;BME280;66430;50.182;11.704;2023-07-09T09:20:23;95249.11;;;33.19;19.05
77366;BME280;66430;50.182;11.704;2023-07-09T09:22:54;95253.06;;;33.54;18.73
77366;BME280;66430;50.182;11.704;2023-07-09T09:25:22;95250.69;;;33.55;18.32
77366;BME280;66430;50.182;11.704;2023-07-09T09:27:40;95250.75;;;33.76;18.22
77366;BME280;66430;50.182;11.704;2023-07-09T09:30:11;95251.65;;;33.68;18.43
77366;BME280;66430;50.182;11.704;2023-07-09T09:32:39;95253.57;;;33.40;18.98
77366;BME280;66430;50.182;11.704;2023-07-09T09:34:57;95250.63;;;33.63;18.72
77366;BME280;66430;50.182;11.704;2023-07-09T09:37:27;95252.93;;;33.75;18.86
77366;BME280;66430;50.182;11.704;2023-07-09T09:39:47;95255.93;;;34.15;18.46
77366;BME280;66430;50.182;11.704;2023-07-09T09:42:13;95251.51;;;34.07;18.27
77366;BME280;66430;50.182;11.704;2023-07-09T09:44:44;95254.70;;;33.83;18.35
77366;BME280;66430;50.182;11.704;2023-07-09T09:47:04;95254.52;;;33.93;17.46
77366;BME280;66430;50.182;11.704;2023-07-09T09:49:29;95254.47;;;33.98;18.81
77366;BME280;66430;50.182;11.704;2023-07-09T09:51:54;95254.00;;;34.53;18.01
77366;BME280;66430;50.182;11.704;2023-07-09T09:54:24;95255.24;;;34.20;18.47
77366;BME280;66430;50.182;11.704;2023-07-09T09:56:45;95252.38;;;34.13;18.26
77366;BME280;66430;50.182;11.704;2023-07-09T09:59:17;95255.84;;;34.38;17.76
77366;BME280;66430;50.182;11.704;2023-07-09T10:01:37;95257.87;;;34.54;16.42
77366;BME280;66430;50.182;11.704;2023-07-09T10:04:03;95253.60;;;34.42;14.96
77366;BME280;66430;50.182;11.704;2023-07-09T10:06:34;95257.98;;;33.62;16.33
77366;BME280;66430;50.182;11.704;2023-07-09T10:08:59;95256.85;;;33.79;17.93
77366;BME280;66430;50.182;11.704;2023-07-09T10:11:21;95253.78;;;34.24;17.77
77366;BME280;66430;50.182;11.704;2023-07-09T10:13:49;95261.85;;;33.74;17.77
77366;BME280;66430;50.182;11.704;2023-07-09T10:16:13;95253.32;;;34.29;17.73
77366;BME280;66430;50.182;11.704;2023-07-09T10:18:43;95251.57;;;34.10;17.94
77366;BME280;66430;50.182;11.704;2023-07-09T10:21:06;95255.99;;;34.69;17.36
77366;BME280;66430;50.182;11.704;2023-07-09T10:23:29;95253.91;;;34.57;17.30
77366;BME280;66430;50.182;11.704;2023-07-09T10:25:54;95252.49;;;34.67;16.62
77366;BME280;66430;50.182;11.704;2023-07-09T10:28:28;95259.04;;;35.23;17.32
77366;BME280;66430;50.182;11.704;2023-07-09T10:30:49;95256.92;;;34.93;17.27
77366;BME280;66430;50.182;11.704;2023-07-09T10:33:09;95258.52;;;35.07;16.68
77366;BME280;66430;50.182;11.704;2023-07-09T10:35:37;95252.72;;;35.26;15.20
77366;BME280;66430;50.182;11.704;2023-07-09T10:38:05;95253.19;;;34.98;17.46
77366;BME280;66430;50.182;11.704;2023-07-09T10:40:28;95255.69;;;34.90;16.86
77366;BME280;66430;50.182;11.704;2023-07-09T10:42:50;95252.96;;;35.19;16.87
77366;BME280;66430;50.182;11.704;2023-07-09T10:45:13;95248.58;;;35.77;16.31
77366;BME280;66430;50.182;11.704;2023-07-09T10:47:40;95247.35;;;35.59;16.43
77366;BME280;66430;50.182;11.704;2023-07-09T10:50:05;95241.38;;;35.28;15.55
77366;BME280;66430;50.182;11.704;2023-07-09T10:52:30;95243.59;;;35.62;16.21
77366;BME280;66430;50.182;11.704;2023-07-09T10:54:57;95246.54;;;35.51;16.57
77366;BME280;66430;50.182;11.704;2023-07-09T10:57:25;95243.89;;;35.92;16.02
77366;BME280;66430;50.182;11.704;2023-07-09T10:59:47;95239.85;;;35.88;15.69
77366;BME280;66430;50.182;11.704;2023-07-09T11:02:17;95239.76;;;35.86;14.21
77366;BME280;66430;50.182;11.704;2023-07-09T11:04:51;95241.21;;;35.93;16.15
77366;BME280;66430;50.182;11.704;2023-07-09T11:07:03;95235.10;;;36.38;16.31
77366;BME280;66430;50.182;11.704;2023-07-09T11:09:28;95237.73;;;36.00;16.10
77366;BME280;66430;50.182;11.704;2023-07-09T11:11:52;95234.63;;;36.26;15.93
77366;BME280;66430;50.182;11.704;2023-07-09T11:14:25;95234.71;;;35.66;16.06
77366;BME280;66430;50.182;11.704;2023-07-09T11:16:42;95229.03;;;36.29;16.46
77366;BME280;66430;50.182;11.704;2023-07-09T11:19:12;95228.72;;;36.31;15.62
77366;BME280;66430;50.182;11.704;2023-07-09T11:21:31;95229.76;;;35.94;15.06
77366;BME280;66430;50.182;11.704;2023-07-09T11:23:58;95224.61;;;36.39;14.57
77366;BME280;66430;50.182;11.704;2023-07-09T11:26:24;95221.21;;;35.81;16.40
77366;BME280;66430;50.182;11.704;2023-07-09T11:28:51;95217.74;;;36.46;15.86
77366;BME280;66430;50.182;11.704;2023-07-09T11:31:19;95225.20;;;36.35;15.83
77366;BME280;66430;50.182;11.704;2023-07-09T11:33:45;95225.89;;;35.91;15.30
77366;BME280;66430;50.182;11.704;2023-07-09T11:36:08;95219.26;;;35.31;13.06
77366;BME280;66430;50.182;11.704;2023-07-09T11:38:38;95223.75;;;35.94;13.74
77366;BME280;66430;50.182;11.704;2023-07-09T11:40:55;95218.12;;;35.57;14.40
77366;BME280;66430;50.182;11.704;2023-07-09T11:43:29;95226.53;;;35.58;15.98
77366;BME280;66430;50.182;11.704;2023-07-09T11:45:44;95221.81;;;35.40;16.73
77366;BME280;66430;50.182;11.704;2023-07-09T11:48:18;95215.54;;;35.86;16.77
77366;BME280;66430;50.182;11.704;2023-07-09T11:50:39;95209.94;;;35.62;16.15
77366;BME280;66430;50.182;11.704;2023-07-09T11:53:04;95208.16;;;35.82;17.68
77366;BME280;66430;50.182;11.704;2023-07-09T11:55:27;95209.00;;;35.33;15.73
77366;BME280;66430;50.182;11.704;2023-07-09T11:57:53;95203.87;;;35.57;13.23
77366;BME280;66430;50.182;11.704;2023-07-09T12:00:16;95204.10;;;35.60;12.48
77366;BME280;66430;50.182;11.704;2023-07-09T12:02:41;95206.87;;;35.13;15.18
77366;BME280;66430;50.182;11.704;2023-07-09T12:05:07;95207.72;;;34.90;17.20
77366;BME280;66430;50.182;11.704;2023-07-09T12:07:31;95211.92;;;35.32;15.89
77366;BME280;66430;50.182;11.704;2023-07-09T12:09:57;95204.35;;;35.61;14.53
77366;BME280;66430;50.182;11.704;2023-07-09T12:12:24;95200.35;;;35.43;15.17
77366;BME280;66430;50.182;11.704;2023-07-09T12:14:47;95200.89;;;35.16;16.46
77366;BME280;66430;50.182;11.704;2023-07-09T12:17:12;95195.52;;;35.55;14.03
77366;BME280;66430;50.182;11.704;2023-07-09T12:19:39;95190.96;;;35.33;14.38
77366;BME280;66430;50.182;11.704;2023-07-09T12:22:09;95188.27;;;35.61;15.50
77366;BME280;66430;50.182;11.704;2023-07-09T12:24:34;95184.36;;;35.97;15.87
77366;BME280;66430;50.182;11.704;2023-07-09T12:26:55;95180.58;;;35.89;16.30
77366;BME280;66430;50.182;11.704;2023-07-09T12:29:19;95184.31;;;35.93;15.97
77366;BME280;66430;50.182;11.704;2023-07-09T12:31:44;95179.34;;;36.25;15.95
77366;BME280;66430;50.182;11.704;2023-07-09T12:34:13;95174.89;;;36.08;16.39
77366;BME280;66430;50.182;11.704;2023-07-09T12:36:43;95182.05;;;36.14;15.98
77366;BME280;66430;50.182;11.704;2023-07-09T12:39:02;95182.07;;;35.96;16.62
77366;BME280;66430;50.182;11.704;2023-07-09T12:41:32;95180.25;;;36.26;16.75
77366;BME280;66430;50.182;11.704;2023-07-09T12:43:53;95182.96;;;35.87;15.87